Lucas Cabrera

Recruteur en chef - Betis
3 Déc 2028
Dimanche
Processus

Personnalité

Adaptabilité (19) Ambition (18) Controverse (1) Loyauté (16) Pression (14) Professionnalisme (19) Sportivité (16) Tempérament (15)

Profil

Style d'entraînement Démocratique
Diplôme Continental Pro
Détermination 15
Gestion des joueurs 15
Motivation 13
Discipline 15
Satisfaction professionnelle
35%
Fatigue
0%
Rôle Recruteur en chef
Salaire 21.2K p/s
Contrat 14.03.2029

Performance

Comportement Bon
Efficacité de l'entraînement
17%
Développement des joueurs
50%
Prévention des blessures
35%
Mise en place tactique
50%

Événements récents

A participé à une réunion de recrutement maintenant
A recommandé une cible de transfert maintenant
A recommandé une cible de transfert maintenant
A recommandé une cible de transfert maintenant
A recommandé une cible de transfert maintenant
A recommandé une cible de transfert maintenant
A évalué un joueur maintenant
A observé un match maintenant

Suivi en cours

203
Joueur Club Statut Capacité Confiance Observé Dernière observation Dernier vote
Rio Ngumoha Plymouth Argyle Actif 147 / 154 40% 12 02.12.2028 -
Lisandro Piñero Banfield Actif 124 / 132 40% 20 02.12.2028 -
Ryan McAidoo Oldham Athletic Actif 132 / 138 40% 11 29.11.2028 -
Babis Kostoulas Oxford United Actif 150 / 146 40% 17 29.11.2028 -
Geovany Quenda Watford Actif 155 / 156 40% 5 29.11.2028 -
Celías Ingenthron Platense Actif 122 / 123 40% 8 27.11.2028 -
Sebastian Rodriguez Houston Dynamo Actif 121 / 131 40% 10 27.11.2028 -
Mateus Mané Burnley Actif 147 / 152 40% 15 26.11.2028 -
Honest Ahanor Atalanta Actif 142 / 154 40% 20 26.11.2028 -
Ayyoub Bouaddi Stoke City Actif 151 / 163 40% 3 25.11.2028 -
Luis Otávio Orlando City Actif 113 / 126 40% 9 24.11.2028 -
Franco Mastantuono Córdoba Actif 149 / 145 40% 8 21.11.2028 -
Harry Gray Harrogate Town Actif 134 / 142 40% 8 21.11.2028 -
Giovanni Cantizano Fulham Actif 125 / 134 40% 5 19.11.2028 -
Matías Arias Vélez Actif 111 / 133 40% 6 19.11.2028 -
Alex Verón Vélez Actif 121 / 128 40% 10 17.11.2028 -
Julian Hall Real Salt Lake Actif 109 / 115 40% 4 16.11.2028 -
Tahiel Peralta Racing Club Actif 113 / 122 40% 3 15.11.2028 -
Matias Siltanen Malmo FF Actif 128 / 140 40% 10 10.11.2028 -
Lucca São Paulo Actif 117 / 112 40% 4 10.11.2028 -
Facundo Jainikoski Independiente Actif 121 / 116 40% 5 08.11.2028 -
Mateo Aguiar Tigre Actif 116 / 115 40% 3 06.11.2028 -
Santiago Segovia Rosario Central Actif 117 / 112 40% 10 03.11.2028 -
Álvaro Montoro Botafogo Actif 139 / 143 40% 7 02.11.2028 -
Christos Mouzakitis Hull City Actif 141 / 151 40% 1 01.11.2028 -
Estêvão Portsmouth Actif 151 / 152 40% 4 30.10.2028 -
Peyton Miller New England Revolution Actif 113 / 130 40% 7 27.10.2028 -
Harrison Armstrong Ipswich Town Actif 138 / 140 40% 2 25.10.2028 -
Ibrahim Mbaye Queens Park Rangers Actif 142 / 147 40% 1 15.10.2028 -
Trey Nyoni Rotherham United Actif 144 / 155 40% 4 13.10.2028 -
Ryunosuke Sato Eibar Actif 136 / 146 40% 10 03.10.2028 -
Axel Tape Bayer Leverkusen Actif 139 / 140 40% 3 02.10.2028 -
Simón Bodnar Independiente Actif 116 / 130 40% 1 24.09.2028 -
Mamoutou Berthé US Bougouba Actif 113 / 111 40% 3 20.09.2028 -
Myles Lewis-Skelly Arsenal Actif 157 / 164 40% 1 15.09.2028 -
Tobías Andrada River Plate Actif 116 / 133 40% 3 08.09.2028 -
Joel Medina Independiente Actif 115 / 125 40% 2 07.09.2028 -
Kauã Moraes Flamengo Actif 128 / 135 40% 8 05.09.2028 -
Aleix Febas Andorra Perdu 141 / 139 86% 1 28.08.2028 -
Otto Stange Borussia Mönchengladbach Actif 133 / 129 40% 2 21.08.2028 -
Thijs Kraaijeveld USM Alger Actif 129 / 140 40% 1 21.08.2028 -
Kerim Alajbegović Modena Actif 140 / 150 40% 4 17.08.2028 -
Jamal Iddrissou Pergolettese Actif 114 / 124 40% 1 15.08.2028 -
Jorge Salinas Racing Santander Actif 133 / 143 40% 9 14.08.2028 -
Aarón Ochoa Málaga Actif 124 / 118 40% 5 14.08.2028 -
Jofre Carreras Espanyol Perdu 142 / 140 86% 1 31.07.2028 -
Pau Cubarsí Real Sociedad Actif 160 / 164 40% 8 04.07.2028 -
Tyler Fletcher Rotherham United Actif 113 / 128 40% 5 04.07.2028 -
Andrey Ivlev Nizhniy Novgorod Actif 110 / 110 40% 2 04.07.2028 -
Borja Mayoral Getafe Perdu 145 / 152 86% 1 03.07.2028 -
Ayden Heaven Portsmouth Actif 147 / 149 40% 8 30.06.2028 -
Bernardo Lima Porto Actif 112 / 116 40% 7 30.06.2028 -
Tobías Ramírez River Plate Perdu 132 / 145 40% 2 29.06.2028 -
Daniel Banjaqui Benfica Actif 126 / 126 40% 2 28.06.2028 -
Lamine Bèye Portimonense Actif 115 / 120 40% 2 26.06.2028 -
Andrija Bulatović Chamois Niortais Actif 129 / 128 40% 2 25.06.2028 -
Kiani Inge Groningen Actif 114 / 113 40% 1 25.06.2028 -
Jan Bürger Northampton Town Actif 122 / 127 40% 4 21.06.2028 -
Cheveyo Tsawa Club Brugge Actif 128 / 126 40% 1 21.06.2028 -
Đorđe Petrović Olympique de Marseille Actif 157 / 157 40% 1 19.06.2028 -
Gabe Forsyth Colchester United Actif 111 / 114 40% 1 10.06.2028 -
Ryan Kavuma-McQueen Accrington Stanley Actif 121 / 130 40% 11 09.06.2028 -
Endrick Boca Juniors Actif 156 / 168 40% 6 09.06.2028 -
Héctor Fort Real Sociedad Actif 148 / 149 40% 7 08.06.2028 -
Sindre Walle Egeli Udinese Actif 141 / 148 40% 10 06.06.2028 -
Manu Fuster Las Palmas Perdu 132 / 135 86% 1 06.06.2028 -
Luca Williams-Barnett Walsall Actif 123 / 132 40% 21 05.06.2028 -
Chupete Málaga Rapport prêt 137 / 128 86% 1 03.06.2028 -
Riquelme Thompson-Jones Accrington Stanley Actif 110 / 108 40% 1 31.05.2028 -
Jorthy Mokio ADO Den Haag Actif 131 / 142 40% 1 31.05.2028 -
Igor Tyjon Barrow AFC Actif 115 / 119 40% 4 24.05.2028 -
Eli Junior Kroupi Bournemouth Actif 144 / 157 40% 7 19.05.2028 -
Shea Lacey Crystal Palace Actif 136 / 144 40% 4 19.05.2028 -
Ibrahim Fullah Charlton Athletic Actif 124 / 129 40% 3 16.05.2028 -
Omar Khedr Gillingham Actif 114 / 119 40% 2 15.05.2028 -
Ben Broggio Mansfield Town Actif 109 / 115 40% 6 12.05.2028 -
Amin Nabizada Exeter City Actif 110 / 126 40% 6 12.05.2028 -
Oscar Schwartau Norwich City Actif 127 / 135 40% 8 03.05.2028 -
Josh Nichols Oldham Athletic Actif 121 / 123 40% 10 28.04.2028 -
Jan Virgili Club Brugge Actif 141 / 137 40% 6 06.04.2028 -
Jake Evans Crewe Alexandra Actif 112 / 114 40% 1 06.04.2028 -
Julien Duranville Olympique Lyonnais Actif 140 / 140 40% 2 04.04.2028 -
André Miranda Porto Actif 116 / 120 40% 2 02.04.2028 -
Siyabonga Mabena Bidvest Wits Actif 123 / 144 40% 4 31.03.2028 -
Rémi Himbert AC Ajaccio Actif 118 / 126 40% 7 17.03.2028 -
Josh Acheampong Everton Actif 142 / 143 40% 5 10.03.2028 -
William Gomes Porto Actif 151 / 156 40% 11 07.03.2028 -
Henrique Carmo Sochi Actif 128 / 136 40% 2 07.03.2028 -
Archie Gray Southampton Actif 154 / 163 40% 8 01.03.2028 -
Luca Meirelles Kudrivka Actif 124 / 137 40% 3 01.03.2028 -
Bazoumana Touré Newcastle United Actif 149 / 151 40% 4 18.02.2028 -
Giovanni Leoni Lincoln City Actif 137 / 153 40% 6 31.01.2028 -
Pedro Baltika Actif 139 / 141 40% 1 26.01.2028 -
Lucas Høgsberg RC Strasbourg Actif 144 / 154 40% 7 11.01.2028 -
Victor Froholdt Porto Actif 155 / 167 40% 4 11.01.2028 -
Izan Merino Málaga Actif 134 / 137 40% 4 11.01.2028 -
Ferran Torres Paris Saint-Germain Actif 164 / 164 66% 1 01.01.2028 Approuver
Nazareno Roselli Defensa y Justicia Actif 114 / 135 40% 9 31.12.2027 -
Victor Hernandez Santa Fe Actif 124 / 127 40% 20 11.12.2027 -
Juan Manuel Villalba Tigre Actif 115 / 133 40% 6 10.12.2027 -
Caleb Yirenkyi Coventry City Actif 142 / 149 40% 13 03.12.2027 -
Esquerdinha Notts County Actif 122 / 137 40% 1 29.11.2027 -
Matteo Pérez Vinlöf Dinamo Zagreb Actif 125 / 115 40% 1 24.11.2027 -
Alejandro Almaraz NK Celje Actif 112 / 126 40% 7 14.11.2027 -
Agustín Obregón River Plate Actif 112 / 102 40% 7 02.11.2027 -
Adrian Skogmar Malmo FF Actif 119 / 120 40% 1 02.11.2027 -
Lucas Bergvall Tottenham Actif 151 / 148 40% 3 18.10.2027 -
Agustín Medina Lanús Actif 116 / 121 40% 1 17.10.2027 -
Ulises Giménez River Plate Actif 109 / 119 40% 3 11.10.2027 -
Yusi Alavés Actif 137 / 144 40% 8 01.10.2027 -
Eliás Montiel Borussia Dortmund Actif 138 / 135 40% 4 29.09.2027 -
Malick Yalcouyé Brighton Actif 132 / 144 40% 1 23.09.2027 -
Leo Castledine Middlesbrough Actif 130 / 136 40% 7 20.06.2027 -
Olívio Tomé Benfica Actif 116 / 122 40% 7 19.06.2027 -
Jonathan Asp-Jensen Deportivo La Coruña Actif 126 / 124 40% 2 13.06.2027 -
Ethan Williams Peterborough United Actif 116 / 127 40% 7 10.06.2027 -
Kirill Glebov CSKA Moscow Actif 130 / 140 40% 14 08.06.2027 -
Rafael Moreno Atletico Venezuela Actif 112 / 120 40% 1 08.06.2027 -
Kang-In Lee Villarreal Actif 157 / 158 66% 1 01.06.2027 -
Joško Gvardiol Manchester City Actif 162 / 163 67% 1 01.06.2027 Approuver
Romelle Donovan Brentford Actif 124 / 133 40% 6 29.05.2027 -
Sascha Britschgi AC Milan Actif 122 / 120 40% 1 29.05.2027 -
Yussif Saidu Zaragoza Actif 124 / 114 40% 7 26.05.2027 -
Gianluca Prestianni Benfica Actif 134 / 135 40% 7 21.05.2027 -
Nikolaus Wurmbrand Girona Actif 119 / 139 40% 2 20.05.2027 -
Othmane Maamma Watford Actif 122 / 118 40% 9 18.05.2027 -
Miguel Figueiredo Benfica Actif 105 / 122 40% 1 17.05.2027 -
Mohamadou Kanté Crawley Town Actif 117 / 127 40% 4 11.05.2027 -
Gorka Gorosabel Real Sociedad Actif 108 / 129 67% 5 07.05.2027 -
Louis Leroux FC Nantes Actif 125 / 119 40% 5 07.05.2027 -
Chemsdine Talbi Sunderland Actif 146 / 146 40% 16 02.05.2027 -
James Bacca La Equidad Actif 130 / 114 40% 2 29.04.2027 -
Lovro Zvonarek Estrela da Amadora Actif 124 / 137 40% 2 16.04.2027 -
Gessime Yassine RC Strasbourg Actif 120 / 121 40% 2 15.04.2027 -
Luís Guilherme Sporting CP Actif 129 / 130 40% 1 06.04.2027 -
Emirhan Başyiğit Sivasspor Actif 113 / 108 40% 1 06.04.2027 -
Kobbie Mainoo Manchester United Actif 153 / 167 40% 9 01.04.2027 -
Malick Fofana Sunderland Actif 142 / 144 40% 4 24.03.2027 -
Yael Padilla Tijuana Actif 110 / 111 40% 7 22.03.2027 -
Antoni Milambo Brentford Actif 138 / 147 40% 3 21.03.2027 -
Rocco Vata Watford Actif 125 / 121 40% 7 17.03.2027 -
Joaquin Seys Club Brugge Actif 131 / 135 40% 1 16.03.2027 -
Mathys Tel Tottenham Actif 145 / 142 40% 3 14.03.2027 -
Dehmaine Tabibou FC Nantes Actif 125 / 131 40% 2 04.03.2027 -
Nico O'Reilly Manchester City Actif 153 / 159 40% 11 03.03.2027 -
David Mella Deportivo La Coruña Actif 130 / 119 40% 1 19.02.2027 -
Marc Pubill Atlético Madrid Actif 146 / 140 40% 4 08.02.2027 -
Manu Koné AS Roma Actif 167 / 154 40% 2 07.02.2027 Plus d'infos
Boubacar Kamara Aston Villa Actif 163 / 158 40% 1 06.02.2027 Plus d'infos
Moisés Caicedo Chelsea Actif 174 / 158 40% 1 06.02.2027 -
Johnny Cardoso Atlético Madrid Actif 156 / 159 40% 2 05.02.2027 -
Amadou Onana Aston Villa Actif 153 / 160 40% 1 05.02.2027 -
Sven Botman Newcastle United Actif 156 / 159 40% 1 04.02.2027 -
Jarrad Branthwaite Everton Actif 154 / 160 40% 1 04.02.2027 -
Alex Scott Bournemouth Actif 151 / 154 40% 1 03.02.2027 -
Curtis Jones Inter Actif 153 / 151 40% 1 03.02.2027 Plus d'infos
Lewis Hall Newcastle United Actif 152 / 146 40% 2 02.02.2027 -
Óscar Mingueza Crystal Palace Actif 150 / 153 40% 1 01.02.2027 -
Yehvann Diouf OGC Nice Actif 136 / 132 40% 1 18.01.2027 -
Joseph Leclercq Tottenham Actif 154 / 144 40% 1 18.01.2027 -
Bobby Clark Derby County Actif 123 / 139 40% 6 14.01.2027 -
Tristan Degreef Anderlecht Actif 129 / 124 40% 4 10.01.2027 -
Tomás Aranda Boca Juniors Actif 116 / 103 40% 6 02.01.2027 -
Nico Williams Athletic Bilbao Actif 161 / 159 83% 1 02.01.2027 Approuver
Tyler Morton Olympique Lyonnais Actif 142 / 145 68% 1 01.01.2027 Approuver
Robert FC Copenhagen Actif 127 / 135 40% 4 29.12.2026 -
Christian Pulisic AC Milan Actif 167 / 152 40% 1 28.12.2026 -
Jorge De Frutos Rayo Vallecano Actif 150 / 151 40% 1 28.12.2026 -
Cody Gakpo Liverpool Actif 160 / 154 40% 5 26.12.2026 -
Luis Suárez Sporting CP Actif 159 / 159 40% 1 26.12.2026 -
Facundo Di Biasi Gimnasia La Plata Actif 119 / 138 40% 3 11.12.2026 -
Lautaro Vargas Unión de Santa Fe Actif 114 / 116 40% 6 09.12.2026 -
Jeremías Merlo Gimnasia La Plata Actif 125 / 126 40% 6 08.12.2026 -
Dani Olmo Barcelona Actif 160 / 166 40% 2 07.12.2026 -
Ismaïla Sarr Crystal Palace Actif 147 / 137 40% 1 07.12.2026 -
Ignacio Perruzzi San Lorenzo Actif 117 / 129 40% 7 03.12.2026 -
Morgan Rogers Chelsea Actif 156 / 170 40% 2 27.11.2026 -
Kevin Schade Chelsea Actif 152 / 159 40% 2 27.11.2026 -
Alan Forneris Racing Club Actif 112 / 103 40% 3 24.11.2026 -
Giovanni Baroni Talleres Actif 101 / 112 40% 4 20.11.2026 -
Kyriani Sabbe Club Brugge Actif 118 / 127 40% 1 17.11.2026 -
Joaquín Tobio Burgos Pachuca Actif 121 / 120 40% 5 15.11.2026 -
Iliman N'Diaye Everton Actif 159 / 164 40% 2 15.11.2026 -
Mikel Oyarzábal Real Sociedad Actif 160 / 156 40% 2 12.11.2026 -
Matheus Cunha Manchester United Actif 156 / 151 40% 4 08.11.2026 -
Themba Dala Black Aces Actif 114 / 101 40% 1 05.11.2026 -
Ramiro Hernandes Belgrano Actif 124 / 116 40% 2 04.11.2026 -
Gonçalo Guedes Real Sociedad Actif 148 / 137 40% 3 03.11.2026 -
Jarrod Bowen West Ham United Actif 153 / 156 40% 1 01.11.2026 -
Viktor Gyökeres Arsenal Actif 153 / 143 40% 2 26.10.2026 -
Federico Chiesa Liverpool Actif 157 / 142 40% 1 26.10.2026 -
Juan Velázquez Belgrano Actif 124 / 136 40% 2 22.10.2026 -
Wilson Odobert Brighton Actif 135 / 130 40% 1 20.10.2026 -
Diego Gaitán Maipú Actif 101 / 122 40% 4 15.10.2026 -
Matvey Safonov Paris Saint-Germain Actif 151 / 154 40% 1 12.10.2026 -
Rayan Cherki Manchester City Actif 165 / 153 40% 1 04.10.2026 -
Marcus Rashford Manchester United Actif 156 / 161 40% 1 04.10.2026 -
Ademola Lookman Atlético Madrid Actif 157 / 166 40% 1 03.10.2026 -
Valentino Acuña Newell's Old Boys Actif 107 / 136 40% 1 19.09.2026 -
Jonás Luna Wanderers Actif 118 / 124 40% 1 26.08.2026 -
João Neves Paris Saint-Germain Actif 167 / 168 40% 1 26.08.2026 -
Daijiro Chirino Almería Actif 133 / 142 83% 1 24.08.2026 Approuver
Nahuel Arias San Lorenzo Actif 115 / 109 40% 1 16.08.2026 -